Windsorville, Connecticut
Current Conditions -  °F | °C
As of 6:51 AM on Friday 19 Dec 2014 (Local Time) from KBDL Reporting Station
Broken Clouds Broken Clouds  
Wind Chill: 24°   Ceiling: 4300
Heat Index: 34°   Visibility: 10mi
Dew Point: 20°   Wind: 15mph
Humidity: 56%   Direction: 300°WNW
Pressure: 29.95"   Gusts: NA
Location:  41.9042°N, 72.5445°W
Report Text: KBDL 191151Z 30013KT 10SM BKN043 01/M07 A2995 RMK AO2 SLP143 T00111067 10022 20011 53009
Loading
Personal Weather Stations






























Interactive Weather Map New forecast layout! Learn more

10-Day Weather Forecast

Advertisements
Track Severe Weather on mobile